sensor_id;sensor_type;location;lat;lon;timestamp;P1;durP1;ratioP1;P2;durP2;ratioP2
84738;SDS011;74969;44.836;-0.586;2024-03-29T00:00:52;4.47;;;1.90;;
84738;SDS011;74969;44.836;-0.586;2024-03-29T00:03:18;3.25;;;1.58;;
84738;SDS011;74969;44.836;-0.586;2024-03-29T00:05:44;4.32;;;2.00;;
84738;SDS011;74969;44.836;-0.586;2024-03-29T00:08:10;4.83;;;1.60;;
84738;SDS011;74969;44.836;-0.586;2024-03-29T00:10:36;5.07;;;1.55;;
84738;SDS011;74969;44.836;-0.586;2024-03-29T00:13:02;3.38;;;1.65;;
84738;SDS011;74969;44.836;-0.586;2024-03-29T00:15:27;5.30;;;2.20;;
84738;SDS011;74969;44.836;-0.586;2024-03-29T00:17:54;2.92;;;1.55;;
84738;SDS011;74969;44.836;-0.586;2024-03-29T00:20:19;3.37;;;1.73;;
84738;SDS011;74969;44.836;-0.586;2024-03-29T00:22:46;3.35;;;1.42;;
84738;SDS011;74969;44.836;-0.586;2024-03-29T00:25:12;4.97;;;1.40;;
84738;SDS011;74969;44.836;-0.586;2024-03-29T00:27:38;4.10;;;1.40;;
84738;SDS011;74969;44.836;-0.586;2024-03-29T00:30:04;4.30;;;1.73;;
84738;SDS011;74969;44.836;-0.586;2024-03-29T00:32:30;6.10;;;1.40;;
84738;SDS011;74969;44.836;-0.586;2024-03-29T00:34:56;2.83;;;1.30;;
84738;SDS011;74969;44.836;-0.586;2024-03-29T00:37:23;3.70;;;1.38;;
84738;SDS011;74969;44.836;-0.586;2024-03-29T00:39:49;3.58;;;1.50;;
84738;SDS011;74969;44.836;-0.586;2024-03-29T00:42:15;4.13;;;1.70;;
84738;SDS011;74969;44.836;-0.586;2024-03-29T00:44:42;3.25;;;1.67;;
84738;SDS011;74969;44.836;-0.586;2024-03-29T00:47:08;3.80;;;1.20;;
84738;SDS011;74969;44.836;-0.586;2024-03-29T00:49:34;5.38;;;2.08;;
84738;SDS011;74969;44.836;-0.586;2024-03-29T00:52:01;7.45;;;1.90;;
84738;SDS011;74969;44.836;-0.586;2024-03-29T00:54:28;4.00;;;1.90;;
84738;SDS011;74969;44.836;-0.586;2024-03-29T00:56:54;4.00;;;1.45;;
84738;SDS011;74969;44.836;-0.586;2024-03-29T00:59:19;5.68;;;1.77;;
84738;SDS011;74969;44.836;-0.586;2024-03-29T01:01:45;5.07;;;1.70;;
84738;SDS011;74969;44.836;-0.586;2024-03-29T01:04:11;6.63;;;1.70;;
84738;SDS011;74969;44.836;-0.586;2024-03-29T01:06:37;5.28;;;1.65;;
84738;SDS011;74969;44.836;-0.586;2024-03-29T01:09:04;3.65;;;1.45;;
84738;SDS011;74969;44.836;-0.586;2024-03-29T01:11:30;5.22;;;1.70;;
84738;SDS011;74969;44.836;-0.586;2024-03-29T01:13:56;4.30;;;1.67;;
84738;SDS011;74969;44.836;-0.586;2024-03-29T01:16:22;6.17;;;1.93;;
84738;SDS011;74969;44.836;-0.586;2024-03-29T01:18:48;5.70;;;1.95;;
84738;SDS011;74969;44.836;-0.586;2024-03-29T01:21:14;5.05;;;2.25;;
84738;SDS011;74969;44.836;-0.586;2024-03-29T01:23:40;7.88;;;1.70;;
84738;SDS011;74969;44.836;-0.586;2024-03-29T01:26:07;6.00;;;2.53;;
84738;SDS011;74969;44.836;-0.586;2024-03-29T01:28:33;6.50;;;2.30;;
84738;SDS011;74969;44.836;-0.586;2024-03-29T01:30:59;8.43;;;3.08;;
84738;SDS011;74969;44.836;-0.586;2024-03-29T01:33:25;5.78;;;2.78;;
84738;SDS011;74969;44.836;-0.586;2024-03-29T01:35:50;6.47;;;1.90;;
84738;SDS011;74969;44.836;-0.586;2024-03-29T01:38:16;8.77;;;2.17;;
84738;SDS011;74969;44.836;-0.586;2024-03-29T01:40:42;5.93;;;2.08;;
84738;SDS011;74969;44.836;-0.586;2024-03-29T01:43:08;7.72;;;2.22;;
84738;SDS011;74969;44.836;-0.586;2024-03-29T01:45:38;10.13;;;2.78;;
84738;SDS011;74969;44.836;-0.586;2024-03-29T01:48:08;5.53;;;1.63;;
84738;SDS011;74969;44.836;-0.586;2024-03-29T01:50:35;5.88;;;2.40;;
84738;SDS011;74969;44.836;-0.586;2024-03-29T01:53:03;7.07;;;1.87;;
84738;SDS011;74969;44.836;-0.586;2024-03-29T01:55:30;7.70;;;2.35;;
84738;SDS011;74969;44.836;-0.586;2024-03-29T01:57:56;5.53;;;1.83;;
84738;SDS011;74969;44.836;-0.586;2024-03-29T02:00:23;7.63;;;2.35;;
84738;SDS011;74969;44.836;-0.586;2024-03-29T02:02:49;5.60;;;1.92;;
84738;SDS011;74969;44.836;-0.586;2024-03-29T02:05:15;5.32;;;2.10;;
84738;SDS011;74969;44.836;-0.586;2024-03-29T02:07:41;9.55;;;1.90;;
84738;SDS011;74969;44.836;-0.586;2024-03-29T02:10:09;6.60;;;2.40;;
84738;SDS011;74969;44.836;-0.586;2024-03-29T02:12:38;8.88;;;2.53;;
84738;SDS011;74969;44.836;-0.586;2024-03-29T02:15:04;7.40;;;2.40;;
84738;SDS011;74969;44.836;-0.586;2024-03-29T02:17:31;6.30;;;2.25;;
84738;SDS011;74969;44.836;-0.586;2024-03-29T02:19:57;6.38;;;2.00;;
84738;SDS011;74969;44.836;-0.586;2024-03-29T02:22:24;4.20;;;2.15;;
84738;SDS011;74969;44.836;-0.586;2024-03-29T02:24:51;4.53;;;1.80;;
84738;SDS011;74969;44.836;-0.586;2024-03-29T02:27:17;6.70;;;1.95;;
84738;SDS011;74969;44.836;-0.586;2024-03-29T02:29:43;7.15;;;2.67;;
84738;SDS011;74969;44.836;-0.586;2024-03-29T02:32:09;5.57;;;2.40;;
84738;SDS011;74969;44.836;-0.586;2024-03-29T02:34:34;6.78;;;2.45;;
84738;SDS011;74969;44.836;-0.586;2024-03-29T02:37:01;6.43;;;2.57;;
84738;SDS011;74969;44.836;-0.586;2024-03-29T02:39:27;6.90;;;2.22;;
84738;SDS011;74969;44.836;-0.586;2024-03-29T02:41:53;7.63;;;2.40;;
84738;SDS011;74969;44.836;-0.586;2024-03-29T02:44:18;6.90;;;3.23;;
84738;SDS011;74969;44.836;-0.586;2024-03-29T02:46:44;4.00;;;1.80;;
84738;SDS011;74969;44.836;-0.586;2024-03-29T02:49:10;4.83;;;1.80;;
84738;SDS011;74969;44.836;-0.586;2024-03-29T02:51:35;6.10;;;2.07;;
84738;SDS011;74969;44.836;-0.586;2024-03-29T02:54:01;5.53;;;2.20;;
84738;SDS011;74969;44.836;-0.586;2024-03-29T02:56:27;3.92;;;2.03;;
84738;SDS011;74969;44.836;-0.586;2024-03-29T02:58:54;4.72;;;2.13;;
84738;SDS011;74969;44.836;-0.586;2024-03-29T03:01:20;10.10;;;2.70;;
84738;SDS011;74969;44.836;-0.586;2024-03-29T03:03:46;5.82;;;2.55;;
84738;SDS011;74969;44.836;-0.586;2024-03-29T03:06:11;7.70;;;2.27;;
84738;SDS011;74969;44.836;-0.586;2024-03-29T03:08:37;8.50;;;2.50;;
84738;SDS011;74969;44.836;-0.586;2024-03-29T03:11:21;5.30;;;2.40;;
84738;SDS011;74969;44.836;-0.586;2024-03-29T03:13:47;6.88;;;2.42;;
84738;SDS011;74969;44.836;-0.586;2024-03-29T03:16:12;4.30;;;1.90;;
84738;SDS011;74969;44.836;-0.586;2024-03-29T03:18:39;4.65;;;2.17;;
84738;SDS011;74969;44.836;-0.586;2024-03-29T03:21:04;7.05;;;2.05;;
84738;SDS011;74969;44.836;-0.586;2024-03-29T03:23:30;7.07;;;2.50;;
84738;SDS011;74969;44.836;-0.586;2024-03-29T03:25:56;7.78;;;2.55;;
84738;SDS011;74969;44.836;-0.586;2024-03-29T03:28:23;8.35;;;3.17;;
84738;SDS011;74969;44.836;-0.586;2024-03-29T03:30:49;8.97;;;2.80;;
84738;SDS011;74969;44.836;-0.586;2024-03-29T03:33:16;8.75;;;2.67;;
84738;SDS011;74969;44.836;-0.586;2024-03-29T03:35:42;9.77;;;3.00;;
84738;SDS011;74969;44.836;-0.586;2024-03-29T03:38:08;7.00;;;2.30;;
84738;SDS011;74969;44.836;-0.586;2024-03-29T03:40:37;6.05;;;2.28;;
84738;SDS011;74969;44.836;-0.586;2024-03-29T03:43:03;9.77;;;2.40;;
84738;SDS011;74969;44.836;-0.586;2024-03-29T03:45:34;6.45;;;2.05;;
84738;SDS011;74969;44.836;-0.586;2024-03-29T03:48:01;6.93;;;2.63;;
84738;SDS011;74969;44.836;-0.586;2024-03-29T03:50:28;6.20;;;2.40;;
84738;SDS011;74969;44.836;-0.586;2024-03-29T03:52:54;11.77;;;2.53;;
84738;SDS011;74969;44.836;-0.586;2024-03-29T03:55:19;8.47;;;1.90;;
84738;SDS011;74969;44.836;-0.586;2024-03-29T03:57:45;8.33;;;2.30;;
84738;SDS011;74969;44.836;-0.586;2024-03-29T04:00:11;6.65;;;2.55;;
84738;SDS011;74969;44.836;-0.586;2024-03-29T04:02:37;9.32;;;2.50;;
84738;SDS011;74969;44.836;-0.586;2024-03-29T04:05:03;7.47;;;2.50;;
84738;SDS011;74969;44.836;-0.586;2024-03-29T04:07:29;6.60;;;2.33;;
84738;SDS011;74969;44.836;-0.586;2024-03-29T04:09:54;6.50;;;2.00;;
84738;SDS011;74969;44.836;-0.586;2024-03-29T04:12:20;7.00;;;2.65;;
84738;SDS011;74969;44.836;-0.586;2024-03-29T04:14:46;7.27;;;2.17;;
84738;SDS011;74969;44.836;-0.586;2024-03-29T04:17:11;7.15;;;2.47;;
84738;SDS011;74969;44.836;-0.586;2024-03-29T04:19:37;8.60;;;3.00;;
84738;SDS011;74969;44.836;-0.586;2024-03-29T04:22:03;7.82;;;2.35;;
84738;SDS011;74969;44.836;-0.586;2024-03-29T04:24:29;7.20;;;2.60;;
84738;SDS011;74969;44.836;-0.586;2024-03-29T04:26:54;8.93;;;2.87;;
84738;SDS011;74969;44.836;-0.586;2024-03-29T04:29:20;9.80;;;2.78;;
84738;SDS011;74969;44.836;-0.586;2024-03-29T04:31:46;7.27;;;2.90;;
84738;SDS011;74969;44.836;-0.586;2024-03-29T04:34:11;9.83;;;3.20;;
84738;SDS011;74969;44.836;-0.586;2024-03-29T04:36:37;4.30;;;2.53;;
84738;SDS011;74969;44.836;-0.586;2024-03-29T04:39:03;6.72;;;2.95;;
84738;SDS011;74969;44.836;-0.586;2024-03-29T04:41:29;11.20;;;3.58;;
84738;SDS011;74969;44.836;-0.586;2024-03-29T04:43:59;7.20;;;3.72;;
84738;SDS011;74969;44.836;-0.586;2024-03-29T04:46:25;10.68;;;3.60;;
84738;SDS011;74969;44.836;-0.586;2024-03-29T04:48:52;8.90;;;3.40;;
84738;SDS011;74969;44.836;-0.586;2024-03-29T04:51:17;8.17;;;3.20;;
84738;SDS011;74969;44.836;-0.586;2024-03-29T04:53:43;13.43;;;3.58;;
84738;SDS011;74969;44.836;-0.586;2024-03-29T04:56:09;10.10;;;2.70;;
84738;SDS011;74969;44.836;-0.586;2024-03-29T04:58:34;11.82;;;3.35;;
84738;SDS011;74969;44.836;-0.586;2024-03-29T05:01:00;8.03;;;3.30;;
84738;SDS011;74969;44.836;-0.586;2024-03-29T05:03:26;7.40;;;2.90;;
84738;SDS011;74969;44.836;-0.586;2024-03-29T05:05:52;8.13;;;3.10;;
84738;SDS011;74969;44.836;-0.586;2024-03-29T05:08:18;10.13;;;3.05;;
84738;SDS011;74969;44.836;-0.586;2024-03-29T05:10:45;15.32;;;3.10;;
84738;SDS011;74969;44.836;-0.586;2024-03-29T05:13:11;5.00;;;2.40;;
84738;SDS011;74969;44.836;-0.586;2024-03-29T05:15:37;5.63;;;2.47;;
84738;SDS011;74969;44.836;-0.586;2024-03-29T05:18:03;8.43;;;2.80;;
84738;SDS011;74969;44.836;-0.586;2024-03-29T05:20:29;7.38;;;2.20;;
84738;SDS011;74969;44.836;-0.586;2024-03-29T05:22:55;11.10;;;2.58;;
84738;SDS011;74969;44.836;-0.586;2024-03-29T05:25:21;6.13;;;2.80;;
84738;SDS011;74969;44.836;-0.586;2024-03-29T05:27:48;8.10;;;2.35;;
84738;SDS011;74969;44.836;-0.586;2024-03-29T05:30:14;8.70;;;2.03;;
84738;SDS011;74969;44.836;-0.586;2024-03-29T05:32:40;6.50;;;2.10;;
84738;SDS011;74969;44.836;-0.586;2024-03-29T05:35:05;5.68;;;2.25;;
84738;SDS011;74969;44.836;-0.586;2024-03-29T05:37:31;6.83;;;2.33;;
84738;SDS011;74969;44.836;-0.586;2024-03-29T05:39:57;4.90;;;1.85;;
84738;SDS011;74969;44.836;-0.586;2024-03-29T05:42:26;5.63;;;1.93;;
84738;SDS011;74969;44.836;-0.586;2024-03-29T05:44:52;6.63;;;2.00;;
84738;SDS011;74969;44.836;-0.586;2024-03-29T05:47:18;5.88;;;2.28;;
84738;SDS011;74969;44.836;-0.586;2024-03-29T05:49:44;6.68;;;2.00;;
84738;SDS011;74969;44.836;-0.586;2024-03-29T05:52:10;7.37;;;1.70;;
84738;SDS011;74969;44.836;-0.586;2024-03-29T05:54:39;5.65;;;2.13;;
84738;SDS011;74969;44.836;-0.586;2024-03-29T05:57:05;5.63;;;1.75;;
84738;SDS011;74969;44.836;-0.586;2024-03-29T05:59:34;6.07;;;1.70;;
84738;SDS011;74969;44.836;-0.586;2024-03-29T06:02:00;6.30;;;1.83;;
84738;SDS011;74969;44.836;-0.586;2024-03-29T06:04:26;3.75;;;1.98;;
84738;SDS011;74969;44.836;-0.586;2024-03-29T06:06:57;8.18;;;2.40;;
84738;SDS011;74969;44.836;-0.586;2024-03-29T06:09:24;6.82;;;1.85;;
84738;SDS011;74969;44.836;-0.586;2024-03-29T06:11:50;5.35;;;1.92;;
84738;SDS011;74969;44.836;-0.586;2024-03-29T06:14:15;6.13;;;1.97;;
84738;SDS011;74969;44.836;-0.586;2024-03-29T06:16:59;8.63;;;2.13;;
84738;SDS011;74969;44.836;-0.586;2024-03-29T06:19:43;6.28;;;2.00;;
84738;SDS011;74969;44.836;-0.586;2024-03-29T06:22:09;5.23;;;1.93;;
84738;SDS011;74969;44.836;-0.586;2024-03-29T06:24:35;4.80;;;2.13;;
84738;SDS011;74969;44.836;-0.586;2024-03-29T06:27:01;5.57;;;1.85;;
84738;SDS011;74969;44.836;-0.586;2024-03-29T06:29:26;3.60;;;1.70;;
84738;SDS011;74969;44.836;-0.586;2024-03-29T06:31:52;4.93;;;2.10;;
84738;SDS011;74969;44.836;-0.586;2024-03-29T06:34:18;6.07;;;1.95;;
84738;SDS011;74969;44.836;-0.586;2024-03-29T06:36:43;5.57;;;1.80;;
84738;SDS011;74969;44.836;-0.586;2024-03-29T06:39:09;9.63;;;2.50;;
84738;SDS011;74969;44.836;-0.586;2024-03-29T06:41:35;9.25;;;2.75;;
84738;SDS011;74969;44.836;-0.586;2024-03-29T06:44:01;6.97;;;2.80;;
84738;SDS011;74969;44.836;-0.586;2024-03-29T06:46:27;9.33;;;2.13;;
84738;SDS011;74969;44.836;-0.586;2024-03-29T06:48:52;4.57;;;2.20;;
84738;SDS011;74969;44.836;-0.586;2024-03-29T06:51:18;7.93;;;2.17;;
84738;SDS011;74969;44.836;-0.586;2024-03-29T06:53:44;6.95;;;2.50;;
84738;SDS011;74969;44.836;-0.586;2024-03-29T06:56:09;6.50;;;2.63;;
84738;SDS011;74969;44.836;-0.586;2024-03-29T06:58:35;8.40;;;2.25;;
84738;SDS011;74969;44.836;-0.586;2024-03-29T07:01:01;11.80;;;2.58;;
84738;SDS011;74969;44.836;-0.586;2024-03-29T07:03:26;8.80;;;3.53;;
84738;SDS011;74969;44.836;-0.586;2024-03-29T07:05:52;7.50;;;2.42;;
84738;SDS011;74969;44.836;-0.586;2024-03-29T07:08:18;11.80;;;2.50;;
84738;SDS011;74969;44.836;-0.586;2024-03-29T07:10:43;5.15;;;2.33;;
84738;SDS011;74969;44.836;-0.586;2024-03-29T07:13:09;5.17;;;2.90;;
84738;SDS011;74969;44.836;-0.586;2024-03-29T07:15:35;7.88;;;2.83;;
84738;SDS011;74969;44.836;-0.586;2024-03-29T07:18:01;9.07;;;2.50;;
84738;SDS011;74969;44.836;-0.586;2024-03-29T07:20:30;6.82;;;2.75;;
84738;SDS011;74969;44.836;-0.586;2024-03-29T07:22:55;7.85;;;2.83;;
84738;SDS011;74969;44.836;-0.586;2024-03-29T07:25:21;4.93;;;2.43;;
84738;SDS011;74969;44.836;-0.586;2024-03-29T07:27:47;6.82;;;2.47;;
84738;SDS011;74969;44.836;-0.586;2024-03-29T07:30:13;5.63;;;2.03;;
84738;SDS011;74969;44.836;-0.586;2024-03-29T07:32:40;11.15;;;2.72;;
84738;SDS011;74969;44.836;-0.586;2024-03-29T07:35:06;6.07;;;2.20;;
84738;SDS011;74969;44.836;-0.586;2024-03-29T07:37:32;7.17;;;2.50;;
84738;SDS011;74969;44.836;-0.586;2024-03-29T07:39:58;8.48;;;2.75;;
84738;SDS011;74969;44.836;-0.586;2024-03-29T07:42:23;5.60;;;2.43;;
84738;SDS011;74969;44.836;-0.586;2024-03-29T07:44:49;5.85;;;2.33;;
84738;SDS011;74969;44.836;-0.586;2024-03-29T07:47:15;6.10;;;2.60;;
84738;SDS011;74969;44.836;-0.586;2024-03-29T07:49:41;6.32;;;2.35;;
84738;SDS011;74969;44.836;-0.586;2024-03-29T07:52:06;6.30;;;2.37;;
84738;SDS011;74969;44.836;-0.586;2024-03-29T07:54:33;8.52;;;2.60;;
84738;SDS011;74969;44.836;-0.586;2024-03-29T07:56:59;4.45;;;2.33;;
84738;SDS011;74969;44.836;-0.586;2024-03-29T07:59:26;8.15;;;2.08;;
84738;SDS011;74969;44.836;-0.586;2024-03-29T08:01:52;5.78;;;2.70;;
84738;SDS011;74969;44.836;-0.586;2024-03-29T08:04:19;7.22;;;2.95;;
84738;SDS011;74969;44.836;-0.586;2024-03-29T08:06:45;6.72;;;2.50;;
84738;SDS011;74969;44.836;-0.586;2024-03-29T08:09:11;6.03;;;1.85;;
84738;SDS011;74969;44.836;-0.586;2024-03-29T08:11:39;5.73;;;2.50;;
84738;SDS011;74969;44.836;-0.586;2024-03-29T08:14:05;6.18;;;2.58;;
84738;SDS011;74969;44.836;-0.586;2024-03-29T08:16:31;9.90;;;3.25;;
84738;SDS011;74969;44.836;-0.586;2024-03-29T08:18:57;6.88;;;3.00;;
84738;SDS011;74969;44.836;-0.586;2024-03-29T08:21:23;9.48;;;3.22;;
84738;SDS011;74969;44.836;-0.586;2024-03-29T08:23:52;7.53;;;2.92;;
84738;SDS011;74969;44.836;-0.586;2024-03-29T08:26:20;6.03;;;2.83;;
84738;SDS011;74969;44.836;-0.586;2024-03-29T08:28:46;8.82;;;3.63;;
84738;SDS011;74969;44.836;-0.586;2024-03-29T08:31:12;8.80;;;2.73;;
84738;SDS011;74969;44.836;-0.586;2024-03-29T08:33:38;7.00;;;2.85;;
84738;SDS011;74969;44.836;-0.586;2024-03-29T08:36:04;8.23;;;3.70;;
84738;SDS011;74969;44.836;-0.586;2024-03-29T08:38:31;8.90;;;3.40;;
84738;SDS011;74969;44.836;-0.586;2024-03-29T08:40:56;8.77;;;3.33;;
84738;SDS011;74969;44.836;-0.586;2024-03-29T08:43:22;11.53;;;3.87;;
84738;SDS011;74969;44.836;-0.586;2024-03-29T08:45:48;9.50;;;3.20;;
84738;SDS011;74969;44.836;-0.586;2024-03-29T08:48:14;12.50;;;3.80;;
84738;SDS011;74969;44.836;-0.586;2024-03-29T08:50:40;12.15;;;3.95;;
84738;SDS011;74969;44.836;-0.586;2024-03-29T08:53:06;8.00;;;3.88;;
84738;SDS011;74969;44.836;-0.586;2024-03-29T08:55:33;6.65;;;3.58;;
84738;SDS011;74969;44.836;-0.586;2024-03-29T08:57:59;14.77;;;4.82;;
84738;SDS011;74969;44.836;-0.586;2024-03-29T09:00:27;9.73;;;3.87;;
84738;SDS011;74969;44.836;-0.586;2024-03-29T09:02:54;6.22;;;3.97;;
84738;SDS011;74969;44.836;-0.586;2024-03-29T09:05:21;10.68;;;4.65;;
84738;SDS011;74969;44.836;-0.586;2024-03-29T09:07:48;12.80;;;4.30;;
84738;SDS011;74969;44.836;-0.586;2024-03-29T09:10:14;14.88;;;3.90;;
84738;SDS011;74969;44.836;-0.586;2024-03-29T09:12:40;7.63;;;3.10;;
84738;SDS011;74969;44.836;-0.586;2024-03-29T09:15:06;9.43;;;3.50;;
84738;SDS011;74969;44.836;-0.586;2024-03-29T09:17:44;8.77;;;3.90;;
84738;SDS011;74969;44.836;-0.586;2024-03-29T09:20:11;9.88;;;4.35;;
84738;SDS011;74969;44.836;-0.586;2024-03-29T09:22:37;9.98;;;3.00;;
84738;SDS011;74969;44.836;-0.586;2024-03-29T09:25:05;9.90;;;3.33;;
84738;SDS011;74969;44.836;-0.586;2024-03-29T09:27:35;7.65;;;3.47;;
84738;SDS011;74969;44.836;-0.586;2024-03-29T09:30:02;6.97;;;2.20;;
84738;SDS011;74969;44.836;-0.586;2024-03-29T09:32:30;3.28;;;1.50;;
84738;SDS011;74969;44.836;-0.586;2024-03-29T09:34:56;6.63;;;2.08;;
84738;SDS011;74969;44.836;-0.586;2024-03-29T09:37:22;6.15;;;1.50;;
84738;SDS011;74969;44.836;-0.586;2024-03-29T09:39:49;4.43;;;1.52;;
84738;SDS011;74969;44.836;-0.586;2024-03-29T09:42:15;4.65;;;1.60;;
84738;SDS011;74969;44.836;-0.586;2024-03-29T09:44:43;2.92;;;1.40;;
84738;SDS011;74969;44.836;-0.586;2024-03-29T09:47:10;5.20;;;1.93;;
84738;SDS011;74969;44.836;-0.586;2024-03-29T09:49:40;6.07;;;2.65;;
84738;SDS011;74969;44.836;-0.586;2024-03-29T09:52:09;4.30;;;2.15;;
84738;SDS011;74969;44.836;-0.586;2024-03-29T09:54:35;7.20;;;2.30;;
84738;SDS011;74969;44.836;-0.586;2024-03-29T09:57:01;7.07;;;1.60;;
84738;SDS011;74969;44.836;-0.586;2024-03-29T09:59:27;3.90;;;1.70;;
84738;SDS011;74969;44.836;-0.586;2024-03-29T10:01:54;4.32;;;1.40;;
84738;SDS011;74969;44.836;-0.586;2024-03-29T10:04:20;4.68;;;1.35;;
84738;SDS011;74969;44.836;-0.586;2024-03-29T10:06:49;5.93;;;2.00;;
84738;SDS011;74969;44.836;-0.586;2024-03-29T10:09:19;6.88;;;1.83;;
84738;SDS011;74969;44.836;-0.586;2024-03-29T10:11:45;6.75;;;2.38;;
84738;SDS011;74969;44.836;-0.586;2024-03-29T10:14:12;4.63;;;1.98;;
84738;SDS011;74969;44.836;-0.586;2024-03-29T10:16:38;4.97;;;2.00;;
84738;SDS011;74969;44.836;-0.586;2024-03-29T10:19:04;5.90;;;2.15;;
84738;SDS011;74969;44.836;-0.586;2024-03-29T10:21:31;5.60;;;1.92;;
84738;SDS011;74969;44.836;-0.586;2024-03-29T10:23:57;7.63;;;2.07;;
84738;SDS011;74969;44.836;-0.586;2024-03-29T10:26:23;5.80;;;2.35;;
84738;SDS011;74969;44.836;-0.586;2024-03-29T10:28:50;7.55;;;2.63;;
84738;SDS011;74969;44.836;-0.586;2024-03-29T10:31:17;7.20;;;3.00;;
84738;SDS011;74969;44.836;-0.586;2024-03-29T10:33:43;7.30;;;2.63;;
84738;SDS011;74969;44.836;-0.586;2024-03-29T10:36:09;12.75;;;4.18;;
84738;SDS011;74969;44.836;-0.586;2024-03-29T10:38:37;11.80;;;3.35;;
84738;SDS011;74969;44.836;-0.586;2024-03-29T10:41:03;9.10;;;2.83;;
84738;SDS011;74969;44.836;-0.586;2024-03-29T10:43:31;5.67;;;2.70;;
84738;SDS011;74969;44.836;-0.586;2024-03-29T10:45:59;7.75;;;2.60;;
84738;SDS011;74969;44.836;-0.586;2024-03-29T10:48:26;11.57;;;3.10;;
84738;SDS011;74969;44.836;-0.586;2024-03-29T10:50:55;8.25;;;3.40;;
84738;SDS011;74969;44.836;-0.586;2024-03-29T10:53:22;8.00;;;4.00;;
84738;SDS011;74969;44.836;-0.586;2024-03-29T10:55:52;5.93;;;3.63;;
84738;SDS011;74969;44.836;-0.586;2024-03-29T10:58:20;10.25;;;4.43;;
84738;SDS011;74969;44.836;-0.586;2024-03-29T11:00:52;8.98;;;4.90;;
84738;SDS011;74969;44.836;-0.586;2024-03-29T11:06:10;10.32;;;4.93;;
84738;SDS011;74969;44.836;-0.586;2024-03-29T11:08:39;7.03;;;4.35;;
84738;SDS011;74969;44.836;-0.586;2024-03-29T11:11:10;13.35;;;4.90;;
84738;SDS011;74969;44.836;-0.586;2024-03-29T11:13:45;8.45;;;3.65;;
84738;SDS011;74969;44.836;-0.586;2024-03-29T11:16:13;10.07;;;4.20;;
84738;SDS011;74969;44.836;-0.586;2024-03-29T11:18:41;7.32;;;3.70;;
84738;SDS011;74969;44.836;-0.586;2024-03-29T11:21:07;8.65;;;4.25;;
84738;SDS011;74969;44.836;-0.586;2024-03-29T11:23:36;6.32;;;3.45;;
84738;SDS011;74969;44.836;-0.586;2024-03-29T11:26:01;9.60;;;4.03;;
84738;SDS011;74969;44.836;-0.586;2024-03-29T11:28:34;10.18;;;4.22;;
84738;SDS011;74969;44.836;-0.586;2024-03-29T11:31:01;11.85;;;4.50;;
84738;SDS011;74969;44.836;-0.586;2024-03-29T11:38:49;4.18;;;2.28;;
84738;SDS011;74969;44.836;-0.586;2024-03-29T11:41:23;7.07;;;1.92;;
84738;SDS011;74969;44.836;-0.586;2024-03-29T11:43:54;4.53;;;1.65;;
84738;SDS011;74969;44.836;-0.586;2024-03-29T11:46:20;3.90;;;1.90;;
84738;SDS011;74969;44.836;-0.586;2024-03-29T11:48:46;5.18;;;1.80;;
84738;SDS011;74969;44.836;-0.586;2024-03-29T11:51:15;5.60;;;1.42;;
84738;SDS011;74969;44.836;-0.586;2024-03-29T11:53:43;4.32;;;1.60;;
84738;SDS011;74969;44.836;-0.586;2024-03-29T11:56:09;4.47;;;1.60;;
84738;SDS011;74969;44.836;-0.586;2024-03-29T11:58:39;6.73;;;1.87;;
84738;SDS011;74969;44.836;-0.586;2024-03-29T12:01:05;4.32;;;1.40;;
84738;SDS011;74969;44.836;-0.586;2024-03-29T12:03:37;4.13;;;1.45;;
84738;SDS011;74969;44.836;-0.586;2024-03-29T12:06:04;3.70;;;1.42;;
84738;SDS011;74969;44.836;-0.586;2024-03-29T12:08:31;2.65;;;1.38;;
84738;SDS011;74969;44.836;-0.586;2024-03-29T12:10:58;5.33;;;1.70;;
84738;SDS011;74969;44.836;-0.586;2024-03-29T12:13:25;3.92;;;1.45;;
84738;SDS011;74969;44.836;-0.586;2024-03-29T12:15:51;6.03;;;1.65;;
84738;SDS011;74969;44.836;-0.586;2024-03-29T12:18:19;2.15;;;1.17;;
84738;SDS011;74969;44.836;-0.586;2024-03-29T12:20:45;5.20;;;1.83;;
84738;SDS011;74969;44.836;-0.586;2024-03-29T12:23:14;2.58;;;1.20;;
84738;SDS011;74969;44.836;-0.586;2024-03-29T12:25:42;2.80;;;1.20;;
84738;SDS011;74969;44.836;-0.586;2024-03-29T12:28:07;5.23;;;1.60;;
84738;SDS011;74969;44.836;-0.586;2024-03-29T12:30:34;4.63;;;1.75;;
84738;SDS011;74969;44.836;-0.586;2024-03-29T12:33:04;3.60;;;1.13;;
84738;SDS011;74969;44.836;-0.586;2024-03-29T12:35:31;4.68;;;1.55;;
84738;SDS011;74969;44.836;-0.586;2024-03-29T12:37:59;4.25;;;2.30;;
84738;SDS011;74969;44.836;-0.586;2024-03-29T12:40:26;3.80;;;1.40;;
84738;SDS011;74969;44.836;-0.586;2024-03-29T12:42:55;2.22;;;0.90;;
84738;SDS011;74969;44.836;-0.586;2024-03-29T12:45:21;3.40;;;1.65;;
84738;SDS011;74969;44.836;-0.586;2024-03-29T12:47:47;4.40;;;1.30;;
84738;SDS011;74969;44.836;-0.586;2024-03-29T12:50:35;4.03;;;1.20;;
84738;SDS011;74969;44.836;-0.586;2024-03-29T12:53:05;2.83;;;1.58;;
84738;SDS011;74969;44.836;-0.586;2024-03-29T12:55:33;2.63;;;1.05;;
84738;SDS011;74969;44.836;-0.586;2024-03-29T12:58:01;4.13;;;1.50;;
84738;SDS011;74969;44.836;-0.586;2024-03-29T13:00:29;3.50;;;1.30;;
84738;SDS011;74969;44.836;-0.586;2024-03-29T13:02:56;3.00;;;1.33;;
84738;SDS011;74969;44.836;-0.586;2024-03-29T13:05:22;4.17;;;1.23;;
84738;SDS011;74969;44.836;-0.586;2024-03-29T13:07:48;3.25;;;1.15;;
84738;SDS011;74969;44.836;-0.586;2024-03-29T13:10:14;2.33;;;1.15;;
84738;SDS011;74969;44.836;-0.586;2024-03-29T13:12:44;3.05;;;0.93;;
84738;SDS011;74969;44.836;-0.586;2024-03-29T13:15:17;4.03;;;1.38;;
84738;SDS011;74969;44.836;-0.586;2024-03-29T13:17:50;4.43;;;1.33;;
84738;SDS011;74969;44.836;-0.586;2024-03-29T13:20:16;2.35;;;1.30;;
84738;SDS011;74969;44.836;-0.586;2024-03-29T13:22:43;3.42;;;1.20;;
84738;SDS011;74969;44.836;-0.586;2024-03-29T13:25:14;4.78;;;1.40;;
84738;SDS011;74969;44.836;-0.586;2024-03-29T13:27:47;3.10;;;1.40;;
84738;SDS011;74969;44.836;-0.586;2024-03-29T13:30:18;2.93;;;0.73;;
84738;SDS011;74969;44.836;-0.586;2024-03-29T13:32:45;3.20;;;1.15;;
84738;SDS011;74969;44.836;-0.586;2024-03-29T13:35:11;2.42;;;0.80;;
84738;SDS011;74969;44.836;-0.586;2024-03-29T13:37:37;3.40;;;0.70;;
84738;SDS011;74969;44.836;-0.586;2024-03-29T13:40:04;3.40;;;1.00;;
84738;SDS011;74969;44.836;-0.586;2024-03-29T13:42:31;2.42;;;0.75;;
84738;SDS011;74969;44.836;-0.586;2024-03-29T13:44:59;3.50;;;0.82;;
84738;SDS011;74969;44.836;-0.586;2024-03-29T13:47:25;2.22;;;0.98;;
84738;SDS011;74969;44.836;-0.586;2024-03-29T13:49:51;2.27;;;0.80;;
84738;SDS011;74969;44.836;-0.586;2024-03-29T13:52:18;3.38;;;1.13;;
84738;SDS011;74969;44.836;-0.586;2024-03-29T13:54:45;3.53;;;1.13;;
84738;SDS011;74969;44.836;-0.586;2024-03-29T13:57:13;5.03;;;1.60;;
84738;SDS011;74969;44.836;-0.586;2024-03-29T13:59:39;5.70;;;1.55;;
84738;SDS011;74969;44.836;-0.586;2024-03-29T14:02:08;3.53;;;1.30;;
84738;SDS011;74969;44.836;-0.586;2024-03-29T14:04:35;4.35;;;1.17;;
84738;SDS011;74969;44.836;-0.586;2024-03-29T14:07:00;2.97;;;1.03;;
84738;SDS011;74969;44.836;-0.586;2024-03-29T14:09:28;4.70;;;1.48;;
84738;SDS011;74969;44.836;-0.586;2024-03-29T14:11:54;4.43;;;1.40;;
84738;SDS011;74969;44.836;-0.586;2024-03-29T14:14:19;2.03;;;1.10;;
84738;SDS011;74969;44.836;-0.586;2024-03-29T14:16:45;4.10;;;1.60;;
84738;SDS011;74969;44.836;-0.586;2024-03-29T14:19:11;2.63;;;0.90;;
84738;SDS011;74969;44.836;-0.586;2024-03-29T14:21:37;2.78;;;0.95;;
84738;SDS011;74969;44.836;-0.586;2024-03-29T14:24:04;3.77;;;1.13;;
84738;SDS011;74969;44.836;-0.586;2024-03-29T14:26:30;2.72;;;0.95;;
84738;SDS011;74969;44.836;-0.586;2024-03-29T14:28:56;3.42;;;0.77;;
84738;SDS011;74969;44.836;-0.586;2024-03-29T14:31:22;4.55;;;1.30;;
84738;SDS011;74969;44.836;-0.586;2024-03-29T14:33:48;3.38;;;1.00;;
84738;SDS011;74969;44.836;-0.586;2024-03-29T14:36:14;3.03;;;1.30;;
84738;SDS011;74969;44.836;-0.586;2024-03-29T14:38:41;3.88;;;1.00;;